Time;durP1;ratioP1;P1;durP2;ratioP2;P2;SDS_P1;SDS_P2;PMS_P1;PMS_P2;Temp;Humidity;BMP_temperature;BMP_pressure;BME280_temperature;BME280_humidity;BME280_pressure;Samples;Min_cycle;Max_cycle;Signal;HPM_P1;HPM_P2
2022/03/28 00:01:35;;;;;;;0.80;0.80;;;;;;;6.98;37.94;101157.98;103928;1279;95151;-74
2022/03/28 00:04:03;;;;;;;0.80;0.80;;;;;;;7.00;38.09;101154.98;103976;1280;137726;-74
2022/03/28 00:06:31;;;;;;;0.70;0.70;;;;;;;7.04;37.99;101147.22;104060;1280;108272;-74
2022/03/28 00:08:59;;;;;;;0.70;0.70;;;;;;;7.08;37.57;101148.81;103923;1280;137833;-74
2022/03/28 00:11:27;;;;;;;0.80;0.80;;;;;;;7.11;37.90;101142.45;103880;1282;107625;-74
2022/03/28 00:13:55;;;;;;;0.80;0.80;;;;;;;7.16;37.70;101138.73;103779;1282;138409;-74
2022/03/28 00:16:24;;;;;;;0.80;0.80;;;;;;;7.19;37.41;101139.45;104213;1281;95325;-75
2022/03/28 00:18:52;;;;;;;0.70;0.70;;;;;;;7.21;37.35;101132.20;103944;1282;108347;-75
2022/03/28 00:21:20;;;;;;;0.70;0.70;;;;;;;7.23;37.14;101123.36;103983;1280;137825;-76
2022/03/28 00:23:48;;;;;;;0.60;0.60;;;;;;;7.29;36.92;101126.54;103859;1282;107698;-74
2022/03/28 00:26:16;;;;;;;0.70;0.70;;;;;;;7.33;36.93;101117.00;103717;1282;138005;-75
2022/03/28 00:28:44;;;;;;;0.70;0.70;;;;;;;7.39;36.92;101113.83;103821;1282;95238;-74
2022/03/28 00:31:12;;;;;;;0.70;0.70;;;;;;;7.45;36.78;101107.97;103950;1281;108703;-74
2022/03/28 00:33:41;;;;;;;0.80;0.80;;;;;;;7.51;36.66;101106.73;103645;1281;137810;-75
2022/03/28 00:36:12;;;;;;;0.70;0.70;;;;;;;7.54;36.56;101098.77;104004;1281;107851;-76
2022/03/28 00:38:40;;;;;;;0.70;0.70;;;;;;;7.57;36.71;101093.46;103867;1282;137888;-75
2022/03/28 00:41:08;;;;;;;0.70;0.70;;;;;;;7.60;36.30;101089.56;103802;1284;95178;-75
2022/03/28 00:43:43;;;;;;;0.70;0.70;;;;;;;7.64;36.26;101092.20;104126;1279;108701;-74
2022/03/28 00:46:11;;;;;;;0.70;0.70;;;;;;;7.67;36.14;101084.95;103859;1282;138619;-74
2022/03/28 00:48:42;;;;;;;0.60;0.60;;;;;;;7.71;35.80;101081.57;104153;1281;107375;-74
2022/03/28 00:51:11;;;;;;;0.60;0.60;;;;;;;7.74;35.67;101073.60;103892;1280;138015;-74
2022/03/28 00:53:39;;;;;;;0.70;0.70;;;;;;;7.79;35.61;101073.05;103814;1282;95639;-75
2022/03/28 00:56:07;;;;;;;0.70;0.70;;;;;;;7.84;35.29;101071.44;103847;1281;138096;-74
2022/03/28 00:58:36;;;;;;;0.70;0.70;;;;;;;7.87;35.42;101068.25;104091;1279;98361;-75
2022/03/28 01:01:04;;;;;;;0.70;0.70;;;;;;;7.89;35.31;101061.52;103914;1280;106762;-76
2022/03/28 01:03:33;;;;;;;0.70;0.70;;;;;;;7.91;35.46;101059.23;103995;1279;138103;-75
2022/03/28 01:06:01;;;;;;;0.60;0.60;;;;;;;7.94;35.20;101051.77;104051;1279;95863;-75
2022/03/28 01:08:29;;;;;;;0.60;0.60;;;;;;;7.96;35.13;101048.40;103819;1281;137665;-76
2022/03/28 01:11:00;;;;;;;0.60;0.60;;;;;;;7.96;35.07;101047.70;103863;1280;98267;-76
2022/03/28 01:13:28;;;;;;;0.60;0.60;;;;;;;7.99;34.99;101042.38;103967;1281;107582;-74
2022/03/28 01:15:58;;;;;;;0.70;0.70;;;;;;;8.01;34.92;101033.52;103702;1282;137934;-75
2022/03/28 01:18:27;;;;;;;0.70;0.70;;;;;;;8.04;34.67;101020.77;104150;1279;95234;-75
2022/03/28 01:21:04;;;;;;;0.70;0.70;;;;;;;8.05;34.73;101017.42;103907;1280;138344;-74
2022/03/28 01:23:32;;;;;;;0.80;0.80;;;;;;;8.08;34.70;101014.56;103871;1281;98608;-74
2022/03/28 01:26:00;;;;;;;0.60;0.60;;;;;;;8.11;34.74;101011.36;103913;1281;150457;-74
2022/03/28 01:28:28;;;;;;;0.60;0.60;;;;;;;8.11;34.41;101008.71;104059;1280;96667;-75
2022/03/28 01:30:56;;;;;;;0.70;0.70;;;;;;;8.11;34.59;101004.29;104118;1282;95926;-73
2022/03/28 01:33:24;;;;;;;0.70;0.70;;;;;;;8.10;34.66;100997.39;103834;1281;137807;-73
2022/03/28 01:35:52;;;;;;;0.70;0.70;;;;;;;8.12;34.50;100993.31;104122;1281;98341;-74
2022/03/28 01:38:21;;;;;;;0.70;0.70;;;;;;;8.13;34.45;100988.52;104142;1280;138804;-72
2022/03/28 01:40:51;;;;;;;0.60;0.60;;;;;;;8.15;34.41;100987.11;103901;1281;95169;-74
2022/03/28 01:43:20;;;;;;;0.60;0.60;;;;;;;8.17;34.11;100980.38;103912;1282;96856;-73
2022/03/28 01:45:50;;;;;;;0.70;0.70;;;;;;;8.19;34.06;100975.73;103974;1280;137999;-74
2022/03/28 01:48:18;;;;;;;0.60;0.60;;;;;;;8.22;34.02;100973.61;104139;1281;97006;-74
2022/03/28 01:50:47;;;;;;;0.60;0.60;;;;;;;8.25;34.25;100966.86;103932;1282;137600;-74
2022/03/28 01:53:15;;;;;;;0.60;0.60;;;;;;;8.26;34.12;100966.86;103968;1281;95745;-75
2022/03/28 01:55:43;;;;;;;0.70;0.70;;;;;;;8.29;34.28;100964.70;104101;1282;95345;-76
2022/03/28 01:58:11;;;;;;;0.60;0.60;;;;;;;8.29;34.19;100961.17;103822;1284;137453;-73
2022/03/28 02:00:40;;;;;;;0.60;0.60;;;;;;;8.30;34.06;100956.92;104021;1281;99107;-74
2022/03/28 02:03:08;;;;;;;0.60;0.60;;;;;;;8.31;34.14;100953.20;104069;1281;137638;-75
2022/03/28 02:05:36;;;;;;;0.60;0.60;;;;;;;8.31;34.26;100948.41;103908;1281;95264;-75
2022/03/28 02:08:04;;;;;;;0.60;0.60;;;;;;;8.31;34.37;100948.06;104110;1281;138002;-74
2022/03/28 02:10:32;;;;;;;0.60;0.60;;;;;;;8.30;34.35;100948.61;103808;1279;107409;-75
2022/03/28 02:13:00;;;;;;;0.60;0.60;;;;;;;8.32;34.30;100948.06;103924;1280;98396;-73
2022/03/28 02:15:28;;;;;;;0.70;0.70;;;;;;;8.31;34.43;100943.13;103911;1282;137792;-74
2022/03/28 02:17:58;;;;;;;0.60;0.60;;;;;;;8.30;34.61;100941.89;104120;1280;95300;-75
2022/03/28 02:20:27;;;;;;;0.60;0.60;;;;;;;8.29;34.35;100944.17;103853;1281;138292;-74
2022/03/28 02:22:55;;;;;;;0.60;0.60;;;;;;;8.27;34.66;100946.33;103899;1282;108116;-74
2022/03/28 02:25:23;;;;;;;0.60;0.60;;;;;;;8.28;34.77;100943.66;104235;1281;98429;-75
2022/03/28 02:27:50;;;;;;;0.60;0.60;;;;;;;8.26;34.77;100945.98;103924;1280;138361;-76
2022/03/28 02:30:18;;;;;;;0.70;0.70;;;;;;;8.26;35.09;100942.80;104277;1279;95642;-75
2022/03/28 02:32:46;;;;;;;0.60;0.60;;;;;;;8.24;34.98;100936.27;103960;1280;137629;-74
2022/03/28 02:35:15;;;;;;;0.70;0.70;;;;;;;8.24;35.22;100932.91;104186;1279;109139;-74
2022/03/28 02:37:47;;;;;;;0.60;0.60;;;;;;;8.23;35.37;100933.45;103777;1281;100023;-75
2022/03/28 02:40:15;;;;;;;0.70;0.70;;;;;;;8.20;35.49;100930.29;103985;1280;138400;-74
2022/03/28 02:42:45;;;;;;;0.60;0.60;;;;;;;8.17;35.43;100928.53;104048;1280;95356;-74
2022/03/28 02:45:13;;;;;;;0.70;0.70;;;;;;;8.16;35.43;100929.07;103909;1280;138699;-74
2022/03/28 02:47:41;;;;;;;0.60;0.60;;;;;;;8.14;35.66;100925.91;104184;1279;107965;-75
2022/03/28 02:50:09;;;;;;;0.60;0.60;;;;;;;8.16;35.85;100929.60;103809;1280;138054;-74
2022/03/28 02:52:37;;;;;;;0.60;0.60;;;;;;;8.14;35.88;100928.92;104262;1279;106922;-75
2022/03/28 02:55:06;;;;;;;0.60;0.60;;;;;;;8.11;35.98;100928.05;104135;1280;95507;-75
2022/03/28 02:57:34;;;;;;;0.60;0.60;;;;;;;8.09;36.00;100925.41;103792;1280;137729;-76
2022/03/28 03:00:04;;;;;;;0.60;0.60;;;;;;;8.08;36.22;100921.89;104075;1281;108686;-74
2022/03/28 03:02:32;;;;;;;0.60;0.60;;;;;;;8.06;36.24;100918.90;103956;1280;139051;-75
2022/03/28 03:05:00;;;;;;;0.60;0.60;;;;;;;8.04;36.51;100914.84;104175;1280;107761;-75
2022/03/28 03:07:28;;;;;;;0.70;0.70;;;;;;;8.07;36.30;100912.70;104030;1281;95468;-74
2022/03/28 03:09:57;;;;;;;0.60;0.60;;;;;;;8.03;36.56;100909.55;103933;1281;138016;-74
2022/03/28 03:12:25;;;;;;;0.60;0.60;;;;;;;8.00;36.61;100905.33;104109;1281;108720;-75
2022/03/28 03:14:54;;;;;;;0.80;0.80;;;;;;;7.94;36.59;100904.66;104062;1281;137943;-74
2022/03/28 03:17:22;;;;;;;0.60;0.60;;;;;;;7.95;36.82;100906.60;103960;1281;106891;-74
2022/03/28 03:19:50;;;;;;;0.70;0.70;;;;;;;7.93;36.83;100905.91;104204;1280;95263;-74
2022/03/28 03:22:18;;;;;;;0.70;0.70;;;;;;;7.90;37.04;100904.16;104070;1280;137470;-74
2022/03/28 03:24:46;;;;;;;0.60;0.60;;;;;;;7.88;37.19;100897.98;104147;1280;109454;-74
2022/03/28 03:27:14;;;;;;;0.70;0.70;;;;;;;7.86;37.26;100899.41;104059;1280;138130;-73
2022/03/28 03:29:42;;;;;;;0.70;0.70;;;;;;;7.84;37.27;100896.77;103970;1281;107886;-74
2022/03/28 03:32:10;;;;;;;0.60;0.60;;;;;;;7.85;37.44;100899.06;103752;1281;138036;-74
2022/03/28 03:34:38;;;;;;;0.70;0.70;;;;;;;7.82;37.59;100891.48;104109;1281;95230;-76
2022/03/28 03:37:07;;;;;;;0.60;0.60;;;;;;;7.79;37.83;100885.67;103930;1281;108702;-74
2022/03/28 03:39:35;;;;;;;0.60;0.60;;;;;;;7.74;37.99;100878.81;104090;1281;138192;-74
2022/03/28 03:42:03;;;;;;;0.60;0.60;;;;;;;7.73;37.88;100878.13;104179;1279;107641;-75
2022/03/28 03:44:31;;;;;;;0.70;0.70;;;;;;;7.74;38.09;100879.17;104049;1280;137839;-74
2022/03/28 03:46:59;;;;;;;0.70;0.70;;;;;;;7.69;38.20;100879.55;103985;1281;95188;-74
2022/03/28 03:49:27;;;;;;;0.70;0.70;;;;;;;7.67;38.51;100876.21;104202;1280;108990;-74
2022/03/28 03:51:55;;;;;;;0.80;0.80;;;;;;;7.66;38.47;100871.45;103809;1281;138394;-73
2022/03/28 03:54:23;;;;;;;0.70;0.70;;;;;;;7.61;38.54;100868.84;104085;1281;107827;-74
2022/03/28 03:56:50;;;;;;;0.80;0.80;;;;;;;7.58;38.85;100864.43;103815;1282;138029;-74
2022/03/28 03:59:18;;;;;;;0.70;0.70;;;;;;;7.59;38.83;100866.38;104148;1281;95562;-72
2022/03/28 04:01:46;;;;;;;0.70;0.70;;;;;;;7.57;39.05;100863.57;104159;1281;108488;-74
2022/03/28 04:04:14;;;;;;;0.80;0.80;;;;;;;7.57;39.01;100860.02;104107;1279;137528;-75
2022/03/28 04:06:42;;;;;;;0.70;0.70;;;;;;;7.57;39.41;100859.84;104208;1280;108337;-74
2022/03/28 04:09:10;;;;;;;0.70;0.70;;;;;;;7.55;39.60;100852.95;104044;1280;137756;-75
2022/03/28 04:11:38;;;;;;;0.70;0.70;;;;;;;7.54;39.77;100849.08;103933;1282;95171;-74
2022/03/28 04:14:07;;;;;;;0.70;0.70;;;;;;;7.55;40.02;100846.61;103770;1282;137738;-74
2022/03/28 04:16:35;;;;;;;0.80;0.80;;;;;;;7.54;39.84;100848.02;104135;1281;98342;-74
2022/03/28 04:19:03;;;;;;;0.70;0.70;;;;;;;7.52;40.16;100845.57;104086;1280;108317;-72
2022/03/28 04:21:31;;;;;;;0.60;0.60;;;;;;;7.54;40.16;100841.13;103811;1281;138220;-75
2022/03/28 04:23:59;;;;;;;0.80;0.80;;;;;;;7.55;40.17;100841.13;104041;1283;95653;-74
2022/03/28 04:26:32;;;;;;;0.70;0.70;;;;;;;7.56;40.39;100842.19;103776;1281;137844;-74
2022/03/28 04:29:00;;;;;;;0.70;0.70;;;;;;;7.51;40.64;100836.73;103912;1281;98587;-75
2022/03/28 04:31:28;;;;;;;0.70;0.70;;;;;;;7.48;40.77;100837.81;104085;1281;107796;-75
2022/03/28 04:33:56;;;;;;;0.70;0.70;;;;;;;7.48;40.87;100837.64;104019;1281;138342;-75
2022/03/28 04:36:25;;;;;;;0.70;0.70;;;;;;;7.50;41.08;100832.33;103974;1281;95209;-74
2022/03/28 04:38:53;;;;;;;0.70;0.70;;;;;;;7.51;41.19;100834.09;103903;1284;137738;-73
2022/03/28 04:41:21;;;;;;;0.80;0.80;;;;;;;7.53;41.40;100830.17;103905;1281;98374;-74
2022/03/28 04:43:49;;;;;;;0.70;0.70;;;;;;;7.49;41.30;100830.38;104090;1281;107804;-76
2022/03/28 04:46:17;;;;;;;0.70;0.70;;;;;;;7.48;41.60;100829.34;104000;1281;137605;-74
2022/03/28 04:48:47;;;;;;;0.80;0.80;;;;;;;7.50;41.57;100828.08;103948;1283;95838;-75
2022/03/28 04:51:16;;;;;;;0.70;0.70;;;;;;;7.53;41.81;100824.35;104126;1281;137660;-74
2022/03/28 04:53:44;;;;;;;0.70;0.70;;;;;;;7.52;41.69;100818.53;104231;1281;98854;-74
2022/03/28 04:56:12;;;;;;;0.70;0.70;;;;;;;7.51;41.77;100815.71;104125;1281;137967;-74
2022/03/28 04:58:40;;;;;;;0.80;0.80;;;;;;;7.52;41.99;100814.46;103875;1281;95250;-75
2022/03/28 05:01:11;;;;;;;0.70;0.70;;;;;;;7.56;42.16;100817.09;104339;1281;95484;-75
2022/03/28 05:03:39;;;;;;;0.70;0.70;;;;;;;7.58;42.03;100811.60;104007;1281;138452;-75
2022/03/28 05:06:08;;;;;;;0.70;0.70;;;;;;;7.58;42.14;100815.31;104144;1281;98375;-75
2022/03/28 05:08:37;;;;;;;0.70;0.70;;;;;;;7.57;42.06;100811.61;103904;1281;138119;-74
2022/03/28 05:11:05;;;;;;;0.70;0.70;;;;;;;7.61;42.16;100810.70;104148;1280;95528;-75
2022/03/28 05:13:33;;;;;;;0.70;0.70;;;;;;;7.61;42.02;100809.10;104075;1280;97059;-73
2022/03/28 05:16:01;;;;;;;0.70;0.70;;;;;;;7.64;42.02;100810.32;103818;1281;138327;-76
2022/03/28 05:18:29;;;;;;;0.70;0.70;;;;;;;7.66;42.06;100808.71;104397;1280;97330;-73
2022/03/28 05:20:57;;;;;;;0.60;0.60;;;;;;;7.70;42.13;100808.15;104212;1281;138009;-74
2022/03/28 05:23:25;;;;;;;0.60;0.60;;;;;;;7.73;42.06;100807.59;104304;1280;96294;-75
2022/03/28 05:25:53;;;;;;;0.70;0.70;;;;;;;7.81;41.98;100806.83;104271;1281;95222;-74
2022/03/28 05:28:23;;;;;;;0.70;0.70;;;;;;;7.85;42.05;100801.67;104055;1281;137537;-75
2022/03/28 05:30:52;;;;;;;0.60;0.60;;;;;;;7.87;41.93;100805.88;104216;1280;98586;-74
2022/03/28 05:33:21;;;;;;;0.80;0.80;;;;;;;7.89;42.29;100804.64;104081;1281;138069;-76
2022/03/28 05:35:49;;;;;;;0.70;0.70;;;;;;;7.91;42.35;100805.50;104228;1281;95265;-75
2022/03/28 05:38:18;;;;;;;0.70;0.70;;;;;;;7.94;42.50;100807.24;104126;1281;137993;-75
2022/03/28 05:40:46;;;;;;;0.70;0.70;;;;;;;7.96;42.39;100802.10;104071;1281;108838;-74
2022/03/28 05:43:14;;;;;;;0.70;0.70;;;;;;;7.99;42.53;100804.73;104061;1281;98358;-74
2022/03/28 05:45:42;;;;;;;0.70;0.70;;;;;;;8.05;42.53;100805.54;104081;1281;138167;-74
2022/03/28 05:48:10;;;;;;;0.60;0.60;;;;;;;8.10;42.84;100809.20;104061;1281;95278;-73
2022/03/28 05:50:38;;;;;;;0.90;0.90;;;;;;;8.13;42.76;100806.36;104261;1281;137921;-76
2022/03/28 05:53:06;;;;;;;0.60;0.60;;;;;;;8.21;42.90;100808.23;104177;1281;109196;-75
2022/03/28 05:55:34;;;;;;;0.70;0.70;;;;;;;8.30;42.95;100805.48;104300;1280;97170;-75
2022/03/28 05:58:02;;;;;;;0.70;0.70;;;;;;;8.34;42.84;100803.66;103886;1284;137728;-75
2022/03/28 06:00:30;;;;;;;0.60;0.60;;;;;;;8.38;43.17;100802.39;103905;1281;95456;-74
2022/03/28 06:02:58;;;;;;;0.60;0.60;;;;;;;8.48;43.19;100802.14;104006;1281;138137;-74
2022/03/28 06:05:44;;;;;;;0.60;0.60;;;;;;;8.62;43.43;100796.13;103954;1281;108792;-75
2022/03/28 06:08:12;;;;;;;0.60;0.60;;;;;;;8.74;43.36;100793.87;103984;1281;137995;-73
2022/03/28 06:10:40;;;;;;;0.60;0.60;;;;;;;8.76;43.44;100792.95;103963;1281;109155;-76
2022/03/28 06:13:08;;;;;;;0.60;0.60;;;;;;;8.82;43.69;100788.11;104121;1281;95637;-75
2022/03/28 06:15:39;;;;;;;0.60;0.60;;;;;;;8.91;44.01;100789.94;104003;1281;138269;-73
2022/03/28 06:18:07;;;;;;;0.50;0.50;;;;;;;8.94;43.98;100789.72;104166;1279;108672;-73
2022/03/28 06:20:35;;;;;;;0.50;0.50;;;;;;;9.01;43.74;100785.36;104039;1280;138007;-75
2022/03/28 06:23:03;;;;;;;0.60;0.60;;;;;;;9.08;44.03;100784.22;103879;1281;107796;-74
2022/03/28 06:25:31;;;;;;;0.50;0.50;;;;;;;9.15;43.93;100787.30;104138;1280;95789;-74
2022/03/28 06:28:00;;;;;;;0.60;0.60;;;;;;;9.29;44.12;100782.51;104022;1280;138788;-74
2022/03/28 06:30:28;;;;;;;0.50;0.50;;;;;;;9.58;43.64;100782.05;103983;1280;109032;-74
2022/03/28 06:32:56;;;;;;;0.50;0.50;;;;;;;9.69;43.42;100776.55;103828;1281;138329;-74
2022/03/28 06:35:24;;;;;;;0.50;0.50;;;;;;;9.74;43.64;100773.98;104127;1280;107805;-76
2022/03/28 06:37:53;;;;;;;0.50;0.50;;;;;;;9.72;43.74;100772.61;104103;1281;95188;-75
2022/03/28 06:40:22;;;;;;;0.50;0.50;;;;;;;9.68;44.09;100774.79;104141;1281;137372;-75
2022/03/28 06:42:50;;;;;;;0.50;0.50;;;;;;;9.66;44.41;100777.14;104079;1282;108703;-75
2022/03/28 06:45:18;;;;;;;0.50;0.50;;;;;;;9.68;44.43;100773.21;103940;1281;137840;-75
2022/03/28 06:47:51;;;;;;;0.50;0.50;;;;;;;9.74;44.80;100768.68;103810;1283;107510;-75
2022/03/28 06:50:22;;;;;;;0.50;0.50;;;;;;;9.76;44.86;100766.69;103923;1281;138038;-73
2022/03/28 06:52:51;;;;;;;0.50;0.50;;;;;;;9.81;44.82;100769.09;103947;1281;94340;-79
2022/03/28 06:55:20;;;;;;;0.50;0.50;;;;;;;9.86;45.01;100768.83;103913;1283;107765;-74
2022/03/28 06:57:48;;;;;;;0.50;0.50;;;;;;;9.93;45.08;100760.55;104130;1279;137782;-75
2022/03/28 07:00:17;;;;;;;0.50;0.50;;;;;;;9.95;45.07;100754.46;103957;1281;108315;-74
2022/03/28 07:02:46;;;;;;;0.50;0.40;;;;;;;9.99;44.95;100750.51;104058;1280;138348;-75
2022/03/28 07:05:14;;;;;;;0.50;0.50;;;;;;;10.03;45.40;100749.55;104111;1280;95280;-76
2022/03/28 07:07:44;;;;;;;0.50;0.50;;;;;;;10.13;45.40;100743.85;104096;1280;108433;-75
2022/03/28 07:10:13;;;;;;;0.50;0.40;;;;;;;10.24;45.49;100738.67;104089;1281;137980;-74
2022/03/28 07:12:41;;;;;;;0.50;0.50;;;;;;;10.34;45.67;100732.82;103823;1281;106759;-74
2022/03/28 07:15:10;;;;;;;0.50;0.50;;;;;;;10.42;45.94;100727.88;104022;1280;138027;-74
2022/03/28 07:17:51;;;;;;;0.50;0.50;;;;;;;10.47;46.30;100725.64;103982;1281;95364;-74
2022/03/28 07:20:24;;;;;;;0.50;0.40;;;;;;;10.56;46.30;100725.11;103960;1280;138719;-73
2022/03/28 07:22:53;;;;;;;0.50;0.40;;;;;;;10.67;46.46;100720.25;103959;1281;98939;-74
2022/03/28 07:25:23;;;;;;;0.40;0.40;;;;;;;10.81;46.63;100716.60;104058;1280;107753;-74
2022/03/28 07:27:52;;;;;;;0.50;0.40;;;;;;;10.90;46.90;100719.94;103819;1284;138453;-76
2022/03/28 07:30:21;;;;;;;0.40;0.40;;;;;;;10.96;46.83;100713.05;104230;1279;95636;-73
2022/03/28 07:32:52;;;;;;;0.40;0.40;;;;;;;11.04;46.73;100712.34;104232;1280;138402;-74
2022/03/28 07:35:21;;;;;;;0.40;0.40;;;;;;;11.13;46.57;100708.58;104127;1281;98452;-74
2022/03/28 07:37:50;;;;;;;0.40;0.30;;;;;;;11.23;46.43;100707.81;103926;1281;107716;-73
2022/03/28 07:40:20;;;;;;;0.40;0.40;;;;;;;11.32;46.61;100707.93;104069;1279;138192;-74
2022/03/28 07:42:48;;;;;;;0.40;0.40;;;;;;;11.49;46.26;100696.85;104303;1280;95320;-74
2022/03/28 07:45:16;;;;;;;0.40;0.40;;;;;;;11.62;46.09;100689.59;103997;1279;138290;-74
2022/03/28 07:47:44;;;;;;;0.40;0.40;;;;;;;11.70;46.16;100687.98;104093;1280;99458;-73
2022/03/28 07:50:12;;;;;;;0.40;0.40;;;;;;;11.76;46.43;100682.11;104264;1279;138686;-74
2022/03/28 07:52:41;;;;;;;0.40;0.30;;;;;;;11.79;46.60;100682.02;104198;1280;95358;-75
2022/03/28 07:55:12;;;;;;;0.40;0.30;;;;;;;11.86;46.90;100678.98;104251;1279;95872;-74
2022/03/28 07:57:40;;;;;;;0.40;0.30;;;;;;;11.94;46.94;100669.02;104237;1280;139026;-74
2022/03/28 08:00:14;;;;;;;0.40;0.30;;;;;;;11.99;47.02;100667.29;104455;1279;96825;-74
2022/03/28 08:02:51;;;;;;;0.40;0.30;;;;;;;12.07;46.98;100662.80;104210;1280;138634;-74
2022/03/28 08:05:20;;;;;;;0.40;0.30;;;;;;;12.17;46.82;100656.81;104288;1280;95623;-74
2022/03/28 08:07:50;;;;;;;0.40;0.30;;;;;;;12.30;47.01;100650.91;104346;1280;95551;-75
2022/03/28 08:10:19;;;;;;;0.40;0.30;;;;;;;12.40;47.03;100653.64;104752;1280;138275;-73
2022/03/28 08:12:48;;;;;;;0.40;0.30;;;;;;;12.49;46.95;100651.42;104512;1280;100238;-73
2022/03/28 08:15:22;;;;;;;0.40;0.30;;;;;;;12.61;46.49;100649.29;104238;1280;138511;-74
2022/03/28 08:17:50;;;;;;;0.40;0.30;;;;;;;12.75;46.68;100641.00;103974;1281;95774;-73
2022/03/28 08:20:18;;;;;;;0.40;0.30;;;;;;;12.86;46.51;100638.34;104234;1280;138450;-73
2022/03/28 08:22:49;;;;;;;0.40;0.30;;;;;;;12.97;46.43;100634.62;104365;1280;110157;-74
2022/03/28 08:25:20;;;;;;;0.40;0.30;;;;;;;13.10;46.22;100631.32;104386;1280;98458;-74
2022/03/28 08:27:49;;;;;;;0.40;0.20;;;;;;;13.20;45.89;100631.35;104270;1280;137929;-74
2022/03/28 08:30:17;;;;;;;0.40;0.30;;;;;;;13.31;45.82;100629.91;104196;1280;96140;-73
2022/03/28 08:32:47;;;;;;;0.40;0.30;;;;;;;13.44;45.77;100626.48;103968;1280;138359;-74
2022/03/28 08:35:16;;;;;;;0.40;0.20;;;;;;;13.65;45.51;100614.52;104050;1280;109029;-73
2022/03/28 08:37:44;;;;;;;0.40;0.20;;;;;;;13.84;45.24;100612.94;104329;1279;98325;-74
2022/03/28 08:40:15;;;;;;;0.40;0.20;;;;;;;13.96;44.82;100611.81;104119;1279;137919;-74
2022/03/28 08:42:43;;;;;;;0.40;0.20;;;;;;;14.07;44.75;100611.38;104300;1279;95512;-75
2022/03/28 08:45:14;;;;;;;0.40;0.20;;;;;;;14.24;44.11;100603.80;104244;1279;137983;-74
2022/03/28 08:47:45;;;;;;;0.40;0.20;;;;;;;14.41;43.65;100602.60;104166;1280;108464;-74
2022/03/28 08:50:34;;;;;;;0.40;0.20;;;;;;;14.62;43.17;100595.34;104175;1280;138840;-74
2022/03/28 08:53:04;;;;;;;0.40;0.20;;;;;;;14.89;42.87;100596.95;104061;1280;107858;-74
2022/03/28 08:55:34;;;;;;;0.40;0.20;;;;;;;15.06;42.40;100594.10;104177;1279;95639;-74
2022/03/28 08:58:02;;;;;;;0.40;0.20;;;;;;;15.20;41.96;100586.35;104053;1281;137960;-76
2022/03/28 09:00:31;;;;;;;0.40;0.20;;;;;;;15.31;41.65;100585.71;104259;1279;108753;-74
2022/03/28 09:02:59;;;;;;;0.40;0.20;;;;;;;15.44;41.68;100575.48;104303;1279;138619;-74
2022/03/28 09:05:41;;;;;;;0.40;0.20;;;;;;;15.61;41.07;100574.95;104432;1279;108252;-73
2022/03/28 09:08:12;;;;;;;0.40;0.20;;;;;;;16.11;39.52;100575.00;104601;1279;138232;-74
2022/03/28 09:10:46;;;;;;;0.40;0.20;;;;;;;16.65;38.39;100576.08;104361;1280;95150;-73
2022/03/28 09:13:19;;;;;;;0.40;0.10;;;;;;;16.68;37.50;100570.37;104605;1279;108369;-73
2022/03/28 09:15:52;;;;;;;0.40;0.10;;;;;;;16.67;36.92;100564.50;104575;1279;138272;-74
2022/03/28 09:18:26;;;;;;;0.40;0.10;;;;;;;16.70;37.21;100563.46;104455;1280;106796;-73
2022/03/28 09:21:01;;;;;;;0.40;0.20;;;;;;;16.84;36.79;100553.98;104287;1280;138653;-72
2022/03/28 09:23:29;;;;;;;0.40;0.30;;;;;;;16.97;36.29;100551.90;104275;1280;95324;-75
2022/03/28 09:25:58;;;;;;;0.40;0.20;;;;;;;17.95;34.56;100550.39;104565;1279;108823;-75
2022/03/28 09:29:06;;;;;;;0.40;0.20;;;;;;;19.80;32.00;100539.64;104449;1279;137992;-74
2022/03/28 09:31:37;;;;;;;0.40;0.20;;;;;;;22.20;28.73;100526.92;103722;1286;107795;-75
2022/03/28 09:34:17;;;;;;;0.40;0.10;;;;;;;23.85;26.17;100530.83;103387;1285;138702;-75
2022/03/28 09:36:51;;;;;;;0.40;0.10;;;;;;;24.88;24.11;100526.38;104102;1281;95640;-75
2022/03/28 09:39:32;;;;;;;0.40;0.10;;;;;;;25.68;23.07;100517.55;104270;1280;137934;-74
2022/03/28 09:42:10;;;;;;;0.40;0.10;;;;;;;26.53;21.90;100511.06;104606;1280;98954;-74
2022/03/28 09:44:39;;;;;;;0.40;0.10;;;;;;;27.11;20.73;100506.85;104621;1280;138709;-74
2022/03/28 09:47:09;;;;;;;0.40;0.10;;;;;;;27.59;19.97;100498.48;104265;1279;96267;-74
2022/03/28 09:49:39;;;;;;;0.40;0.10;;;;;;;28.24;19.25;100501.46;104384;1281;95118;-75
2022/03/28 09:52:11;;;;;;;0.40;0.00;;;;;;;28.81;18.69;100497.46;104353;1280;138690;-75
2022/03/28 09:54:56;;;;;;;0.40;0.00;;;;;;;29.31;17.97;100491.14;104282;1279;98887;-74
2022/03/28 09:57:26;;;;;;;0.40;0.00;;;;;;;29.89;17.27;100483.34;104363;1279;138075;-74
2022/03/28 10:00:08;;;;;;;0.40;0.00;;;;;;;30.42;16.85;100487.51;104599;1279;95628;-74
2022/03/28 10:02:36;;;;;;;0.40;0.00;;;;;;;30.73;16.21;100490.25;104630;1279;138263;-74
2022/03/28 10:05:06;;;;;;;0.40;0.00;;;;;;;30.58;16.04;100482.91;104350;1279;108851;-74
2022/03/28 10:07:34;;;;;;;0.40;0.00;;;;;;;30.73;16.30;100477.30;104270;1280;98695;-74
2022/03/28 10:10:03;;;;;;;0.40;0.00;;;;;;;31.25;16.42;100468.06;104411;1279;137886;-74
2022/03/28 10:12:31;;;;;;;0.40;0.00;;;;;;;31.65;15.87;100464.66;104487;1279;95421;-75
2022/03/28 10:15:00;;;;;;;0.40;0.00;;;;;;;31.87;15.01;100464.94;104392;1280;138105;-73
2022/03/28 10:17:29;;;;;;;0.40;0.00;;;;;;;32.27;15.22;100461.45;104443;1280;108756;-76
2022/03/28 10:19:58;;;;;;;0.40;0.00;;;;;;;32.23;14.27;100466.51;104341;1279;98309;-74
2022/03/28 10:22:36;;;;;;;0.40;0.00;;;;;;;32.21;14.41;100464.14;104372;1279;138640;-75
2022/03/28 10:25:08;;;;;;;0.40;0.00;;;;;;;31.97;14.31;100466.20;104535;1279;94393;-74
2022/03/28 10:27:36;;;;;;;0.40;0.00;;;;;;;32.04;14.70;100457.15;104438;1279;138015;-77
2022/03/28 10:30:18;;;;;;;0.40;0.00;;;;;;;31.90;14.28;100449.91;104514;1280;108740;-75
2022/03/28 10:32:46;;;;;;;0.40;0.00;;;;;;;31.60;14.70;100442.38;104425;1279;138695;-76
2022/03/28 10:35:16;;;;;;;0.40;0.00;;;;;;;31.68;15.01;100436.83;104811;1281;107791;-75
2022/03/28 10:37:48;;;;;;;0.40;0.00;;;;;;;31.85;15.09;100438.78;104441;1279;95674;-74
2022/03/28 10:40:25;;;;;;;0.40;0.00;;;;;;;32.19;14.90;100431.08;104459;1280;138402;-74
2022/03/28 10:43:13;;;;;;;0.40;0.00;;;;;;;32.39;14.62;100429.34;104256;1280;108446;-74
2022/03/28 10:46:00;;;;;;;0.40;0.00;;;;;;;32.87;14.89;100430.61;104438;1279;137668;-75
2022/03/28 10:48:43;;;;;;;0.40;0.00;;;;;;;33.32;14.11;100411.02;104378;1280;106737;-75
2022/03/28 10:51:21;;;;;;;0.40;0.00;;;;;;;33.12;14.08;100409.20;104400;1279;136996;-76
2022/03/28 10:53:53;;;;;;;0.40;0.00;;;;;;;31.83;15.02;100403.10;104540;1279;95148;-75
2022/03/28 10:56:34;;;;;;;0.40;0.00;;;;;;;29.55;16.61;100400.70;104372;1279;138399;-75
2022/03/28 10:59:11;;;;;;;0.40;0.00;;;;;;;27.88;18.22;100401.66;104387;1279;98246;-74
2022/03/28 11:01:44;;;;;;;0.40;0.00;;;;;;;26.47;19.20;100396.34;104514;1280;108570;-75
2022/03/28 11:04:12;;;;;;;0.40;0.00;;;;;;;25.49;20.62;100388.36;104389;1279;138241;-76
2022/03/28 11:07:04;;;;;;;0.40;0.00;;;;;;;24.81;21.40;100385.50;104363;1279;95769;-74
2022/03/28 11:09:34;;;;;;;0.40;0.00;;;;;;;23.81;22.45;100386.39;104364;1279;138173;-74
2022/03/28 11:12:07;;;;;;;0.40;0.00;;;;;;;23.13;23.52;100380.84;104607;1279;98197;-74
2022/03/28 11:14:51;;;;;;;0.40;0.00;;;;;;;22.44;24.40;100372.89;104259;1280;138553;-74
2022/03/28 11:17:21;;;;;;;0.40;0.00;;;;;;;22.02;25.24;100370.45;104454;1279;95597;-74
2022/03/28 11:19:56;;;;;;;0.40;0.00;;;;;;;21.59;25.46;100374.50;104523;1280;95741;-74
2022/03/28 11:22:49;;;;;;;0.40;0.00;;;;;;;21.10;25.67;100370.73;104396;1279;138579;-74
2022/03/28 11:25:30;;;;;;;0.40;0.10;;;;;;;20.76;26.40;100365.88;104429;1280;98826;-75
2022/03/28 11:28:04;;;;;;;0.40;0.00;;;;;;;20.42;27.25;100358.11;104448;1279;138167;-74
2022/03/28 11:30:39;;;;;;;0.40;0.10;;;;;;;20.25;27.52;100358.04;104591;1279;96793;-74